GIA009 WAHI-WIII
Flight info
| Callsign | GIA009 |
|---|---|
| Flight time | N/A |
| Altitude | 36000 |
| Route | CA W17S IMU |
| Aircraft | B738/M-SDE2E3FGHIRWXY/LB1 |
Departure
| Time | N/A |
|---|---|
| Airport | Yogyakarta International Airport (WAHI) |
Arrival
| Time | 2026-05-07 16:07 |
|---|---|
| Airport | Soekarno-Hatta International Airport (WIII) |
| Time | Latitude | Longitude | Altitude | Speed | Heading |
|---|---|---|---|---|---|
| 2026-05-07 15:31 | -7.13913 | 109.06326 | 32833 ft | 401 kts | 311° |
| 2026-05-07 15:32 | -7.12077 | 109.04228 | 33234 ft | 399 kts | 311° |
| 2026-05-07 15:32 | -7.10228 | 109.02117 | 33377 ft | 405 kts | 311° |
| 2026-05-07 15:32 | -7.06446 | 108.97798 | 33586 ft | 416 kts | 311° |
| 2026-05-07 15:33 | -7.04525 | 108.95605 | 33800 ft | 418 kts | 311° |
| 2026-05-07 15:33 | -7.02601 | 108.93408 | 34136 ft | 416 kts | 311° |
| 2026-05-07 15:33 | -7.00694 | 108.91231 | 34518 ft | 413 kts | 311° |
| 2026-05-07 15:33 | -6.98798 | 108.89067 | 34806 ft | 412 kts | 311° |
| 2026-05-07 15:34 | -6.96903 | 108.86905 | 35057 ft | 412 kts | 311° |
| 2026-05-07 15:34 | -6.95002 | 108.84735 | 35172 ft | 416 kts | 311° |
| 2026-05-07 15:34 | -6.91126 | 108.80313 | 35310 ft | 426 kts | 311° |
| 2026-05-07 15:35 | -6.87162 | 108.75793 | 35447 ft | 435 kts | 311° |
| 2026-05-07 15:35 | -6.83147 | 108.71214 | 35576 ft | 443 kts | 311° |
| 2026-05-07 15:36 | -6.79030 | 108.66520 | 35731 ft | 450 kts | 311° |
| 2026-05-07 15:36 | -6.76958 | 108.64158 | 35891 ft | 451 kts | 311° |
| 2026-05-07 15:36 | -6.74874 | 108.61782 | 35888 ft | 454 kts | 311° |
| 2026-05-07 15:37 | -6.70513 | 108.57138 | 35893 ft | 458 kts | 321° |
| 2026-05-07 15:37 | -6.65126 | 108.53713 | 35907 ft | 460 kts | 331° |
| 2026-05-07 15:38 | -6.59519 | 108.50592 | 35888 ft | 460 kts | 331° |
| 2026-05-07 15:38 | -6.53960 | 108.47441 | 35880 ft | 456 kts | 330° |
| 2026-05-07 15:39 | -6.48523 | 108.44317 | 35885 ft | 451 kts | 330° |
| 2026-05-07 15:39 | -6.43086 | 108.41188 | 35883 ft | 449 kts | 330° |
| 2026-05-07 15:40 | -6.37664 | 108.38073 | 35886 ft | 448 kts | 330° |
| 2026-05-07 15:40 | -6.32669 | 108.34420 | 35889 ft | 447 kts | 308° |
| 2026-05-07 15:41 | -6.31057 | 108.31749 | 35887 ft | 449 kts | 293° |
| 2026-05-07 15:41 | -6.30171 | 108.28736 | 35881 ft | 452 kts | 278° |
| 2026-05-07 15:41 | -6.29882 | 108.22466 | 35866 ft | 438 kts | 272° |
| 2026-05-07 15:42 | -6.29835 | 108.19456 | 35839 ft | 424 kts | 271° |
| 2026-05-07 15:42 | -6.29789 | 108.16541 | 35819 ft | 411 kts | 272° |
| 2026-05-07 15:42 | -6.29733 | 108.13698 | 35664 ft | 406 kts | 272° |
| 2026-05-07 15:42 | -6.29663 | 108.10832 | 35142 ft | 411 kts | 272° |
| 2026-05-07 15:43 | -6.29585 | 108.08007 | 34705 ft | 410 kts | 272° |
| 2026-05-07 15:43 | -6.29500 | 108.05139 | 34259 ft | 410 kts | 272° |
| 2026-05-07 15:43 | -6.29411 | 108.02272 | 33811 ft | 411 kts | 273° |
| 2026-05-07 15:43 | -6.29320 | 107.99402 | 33314 ft | 411 kts | 272° |
| 2026-05-07 15:44 | -6.29229 | 107.96525 | 32775 ft | 412 kts | 272° |
| 2026-05-07 15:44 | -6.29136 | 107.93634 | 32220 ft | 414 kts | 272° |
| 2026-05-07 15:44 | -6.29043 | 107.90725 | 31684 ft | 416 kts | 272° |
| 2026-05-07 15:44 | -6.28950 | 107.87810 | 31148 ft | 418 kts | 272° |
| 2026-05-07 15:45 | -6.28856 | 107.84881 | 30628 ft | 420 kts | 272° |
| 2026-05-07 15:45 | -6.28762 | 107.81942 | 30115 ft | 422 kts | 272° |
| 2026-05-07 15:45 | -6.28668 | 107.78988 | 29539 ft | 423 kts | 272° |
| 2026-05-07 15:45 | -6.28573 | 107.76029 | 28953 ft | 423 kts | 272° |
| 2026-05-07 15:46 | -6.28385 | 107.70145 | 27805 ft | 424 kts | 272° |
| 2026-05-07 15:46 | -6.28288 | 107.67146 | 27237 ft | 424 kts | 272° |
| 2026-05-07 15:46 | -6.28193 | 107.64187 | 26689 ft | 424 kts | 272° |
| 2026-05-07 15:47 | -6.28097 | 107.61228 | 26154 ft | 423 kts | 272° |
| 2026-05-07 15:47 | -6.28002 | 107.58315 | 25632 ft | 423 kts | 272° |
| 2026-05-07 15:47 | -6.27907 | 107.55360 | 25111 ft | 422 kts | 272° |
| 2026-05-07 15:47 | -6.27811 | 107.52422 | 24604 ft | 421 kts | 272° |
| 2026-05-07 15:48 | -6.27715 | 107.49480 | 24101 ft | 420 kts | 272° |
| 2026-05-07 15:48 | -6.27620 | 107.46545 | 23611 ft | 419 kts | 272° |
| 2026-05-07 15:48 | -6.27524 | 107.43617 | 23050 ft | 418 kts | 272° |
| 2026-05-07 15:48 | -6.27428 | 107.40700 | 22468 ft | 417 kts | 272° |
| 2026-05-07 15:49 | -6.27333 | 107.37792 | 21896 ft | 416 kts | 272° |
| 2026-05-07 15:49 | -6.27237 | 107.34890 | 21336 ft | 414 kts | 272° |
| 2026-05-07 15:49 | -6.27142 | 107.31999 | 20790 ft | 413 kts | 272° |
| 2026-05-07 15:49 | -6.27047 | 107.29116 | 20249 ft | 411 kts | 271° |
| 2026-05-07 15:50 | -6.26952 | 107.26254 | 19721 ft | 410 kts | 271° |
| 2026-05-07 15:50 | -6.26858 | 107.23390 | 19196 ft | 408 kts | 271° |
| 2026-05-07 15:50 | -6.26764 | 107.20554 | 18694 ft | 405 kts | 271° |
| 2026-05-07 15:50 | -6.26671 | 107.17760 | 18169 ft | 395 kts | 271° |
| 2026-05-07 15:51 | -6.26580 | 107.15034 | 17581 ft | 385 kts | 271° |
| 2026-05-07 15:51 | -6.26491 | 107.12376 | 17006 ft | 377 kts | 271° |
| 2026-05-07 15:51 | -6.26404 | 107.09767 | 16446 ft | 370 kts | 271° |
| 2026-05-07 15:51 | -6.26319 | 107.07208 | 15890 ft | 363 kts | 271° |
| 2026-05-07 15:52 | -6.26147 | 107.04704 | 15339 ft | 357 kts | 282° |
| 2026-05-07 15:52 | -6.25220 | 107.02426 | 14798 ft | 352 kts | 305° |
| 2026-05-07 15:52 | -6.23569 | 107.00655 | 14287 ft | 345 kts | 321° |
| 2026-05-07 15:52 | -6.21701 | 106.99167 | 13789 ft | 340 kts | 323° |
| 2026-05-07 15:53 | -6.19849 | 106.97729 | 13391 ft | 331 kts | 323° |
| 2026-05-07 15:53 | -6.18055 | 106.96334 | 13137 ft | 323 kts | 323° |
| 2026-05-07 15:53 | -6.16279 | 106.94942 | 12899 ft | 324 kts | 323° |
| 2026-05-07 15:53 | -6.14499 | 106.93537 | 12658 ft | 327 kts | 322° |
| 2026-05-07 15:54 | -6.12713 | 106.92121 | 12411 ft | 327 kts | 322° |
| 2026-05-07 15:54 | -6.10937 | 106.90707 | 12186 ft | 326 kts | 322° |
| 2026-05-07 15:54 | -6.09222 | 106.89213 | 11926 ft | 326 kts | 310° |
| 2026-05-07 15:54 | -6.08171 | 106.87266 | 11636 ft | 321 kts | 283° |
| 2026-05-07 15:55 | -6.07874 | 106.85112 | 11538 ft | 303 kts | 276° |
| 2026-05-07 15:55 | -6.07632 | 106.83017 | 11219 ft | 302 kts | 276° |
| 2026-05-07 15:55 | -6.07372 | 106.80930 | 10927 ft | 301 kts | 277° |
| 2026-05-07 15:55 | -6.07102 | 106.78844 | 10430 ft | 302 kts | 277° |
| 2026-05-07 15:56 | -6.06825 | 106.76744 | 9851 ft | 305 kts | 277° |
| 2026-05-07 15:56 | -6.06541 | 106.74630 | 9360 ft | 303 kts | 277° |
| 2026-05-07 15:56 | -6.06261 | 106.72556 | 8852 ft | 295 kts | 277° |
| 2026-05-07 15:56 | -6.05986 | 106.70528 | 8260 ft | 291 kts | 277° |
| 2026-05-07 15:57 | -6.05804 | 106.69194 | 7806 ft | 291 kts | 277° |
| 2026-05-07 15:57 | -6.05438 | 106.66503 | 6971 ft | 289 kts | 277° |
| 2026-05-07 15:57 | -6.05168 | 106.64520 | 6418 ft | 285 kts | 277° |
| 2026-05-07 15:57 | -6.04901 | 106.62560 | 5833 ft | 281 kts | 277° |
| 2026-05-07 15:58 | -6.04641 | 106.60650 | 5364 ft | 275 kts | 277° |
| 2026-05-07 15:58 | -6.04433 | 106.58813 | 5208 ft | 257 kts | 268° |
| 2026-05-07 15:58 | -6.04811 | 106.57096 | 5051 ft | 248 kts | 247° |
| 2026-05-07 15:58 | -6.05446 | 106.55533 | 4997 ft | 238 kts | 246° |
| 2026-05-07 15:59 | -6.05875 | 106.54498 | 4782 ft | 243 kts | 246° |
| 2026-05-07 15:59 | -6.06749 | 106.52377 | 4309 ft | 245 kts | 246° |
| 2026-05-07 15:59 | -6.07380 | 106.50831 | 4069 ft | 234 kts | 246° |
| 2026-05-07 15:59 | -6.07788 | 106.49826 | 3923 ft | 226 kts | 246° |
| 2026-05-07 16:00 | -6.08368 | 106.48392 | 3731 ft | 219 kts | 246° |
| 2026-05-07 16:00 | -6.08937 | 106.46985 | 3568 ft | 216 kts | 246° |
| 2026-05-07 16:00 | -6.09502 | 106.45588 | 3400 ft | 216 kts | 246° |
| 2026-05-07 16:00 | -6.10068 | 106.44189 | 3244 ft | 216 kts | 246° |
| 2026-05-07 16:01 | -6.10808 | 106.42895 | 3043 ft | 215 kts | 219° |
| 2026-05-07 16:01 | -6.12094 | 106.42271 | 2829 ft | 208 kts | 183° |
| 2026-05-07 16:01 | -6.13515 | 106.42343 | 2640 ft | 203 kts | 168° |
| 2026-05-07 16:01 | -6.14899 | 106.42584 | 2387 ft | 201 kts | 167° |
| 2026-05-07 16:02 | -6.16238 | 106.42918 | 2137 ft | 197 kts | 150° |
| 2026-05-07 16:02 | -6.17218 | 106.43846 | 2062 ft | 195 kts | 117° |
| 2026-05-07 16:02 | -6.17518 | 106.45154 | 2017 ft | 194 kts | 89° |
| 2026-05-07 16:02 | -6.17488 | 106.46501 | 2008 ft | 191 kts | 89° |
| 2026-05-07 16:03 | -6.17459 | 106.47825 | 1999 ft | 188 kts | 89° |
| 2026-05-07 16:03 | -6.17424 | 106.49134 | 1983 ft | 186 kts | 85° |
| 2026-05-07 16:03 | -6.17039 | 106.50364 | 2008 ft | 185 kts | 67° |
| 2026-05-07 16:03 | -6.16555 | 106.51524 | 1990 ft | 178 kts | 69° |
| 2026-05-07 16:04 | -6.16099 | 106.52657 | 1982 ft | 173 kts | 69° |
| 2026-05-07 16:04 | -6.15652 | 106.53772 | 1994 ft | 169 kts | 69° |
| 2026-05-07 16:04 | -6.15211 | 106.54877 | 2006 ft | 172 kts | 69° |
| 2026-05-07 16:04 | -6.14759 | 106.56010 | 1803 ft | 180 kts | 69° |
| 2026-05-07 16:05 | -6.14299 | 106.57162 | 1561 ft | 175 kts | 69° |
| 2026-05-07 16:05 | -6.13849 | 106.58287 | 1303 ft | 171 kts | 69° |
| 2026-05-07 16:05 | -6.13410 | 106.59389 | 1198 ft | 166 kts | 69° |
| 2026-05-07 16:05 | -6.12991 | 106.60437 | 1109 ft | 157 kts | 69° |
| 2026-05-07 16:06 | -6.12594 | 106.61437 | 1062 ft | 156 kts | 69° |
| 2026-05-07 16:06 | -6.12207 | 106.62486 | 759 ft | 159 kts | 68° |
| 2026-05-07 16:06 | -6.11754 | 106.63495 | 384 ft | 156 kts | 68° |
| 2026-05-07 16:06 | -6.11371 | 106.64490 | 93 ft | 149 kts | 68° |
| 2026-05-07 16:07 | -6.11006 | 106.65415 | 38 ft | 130 kts | 68° |
| 2026-05-07 16:07 | -6.10710 | 106.66157 | 39 ft | 87 kts | 68° |
| 2026-05-07 16:07 | -6.10632 | 106.66473 | 38 ft | 32 kts | 96° |
| 2026-05-07 16:07 | -6.10644 | 106.66552 | 37 ft | 0 kts | 99° |
| 2026-05-07 16:08 | -6.10649 | 106.66579 | 34 ft | 7 kts | 99° |
| 2026-05-07 16:08 | -6.10673 | 106.66644 | 37 ft | 12 kts | 127° |
| 2026-05-07 16:09 | -6.10733 | 106.66679 | 37 ft | 11 kts | 161° |
| 2026-05-07 16:09 | -6.10809 | 106.66632 | 35 ft | 17 kts | 237° |
| 2026-05-07 16:09 | -6.10864 | 106.66504 | 34 ft | 22 kts | 251° |
| 2026-05-07 16:09 | -6.10922 | 106.66357 | 37 ft | 23 kts | 248° |
| 2026-05-07 16:10 | -6.10981 | 106.66212 | 37 ft | 22 kts | 249° |
| 2026-05-07 16:10 | -6.11036 | 106.66069 | 38 ft | 21 kts | 249° |
| 2026-05-07 16:10 | -6.11091 | 106.65933 | 38 ft | 21 kts | 247° |
| 2026-05-07 16:10 | -6.11147 | 106.65793 | 38 ft | 22 kts | 248° |
| 2026-05-07 16:11 | -6.11203 | 106.65653 | 36 ft | 15 kts | 244° |
| 2026-05-07 16:11 | -6.11298 | 106.65639 | 36 ft | 12 kts | 159° |
| 2026-05-07 16:11 | -6.11310 | 106.65643 | 37 ft | 6 kts | 159° |
| 2026-05-07 16:11 | -6.11386 | 106.65682 | 38 ft | 19 kts | 136° |
| 2026-05-07 16:12 | -6.11420 | 106.65798 | 37 ft | 3 kts | 100° |
| 2026-05-07 16:12 | -6.11422 | 106.65809 | 37 ft | 0 kts | 100° |
| 2026-05-07 16:12 | -6.11426 | 106.65828 | 35 ft | 7 kts | 104° |
| 2026-05-07 16:12 | -6.11434 | 106.65847 | 36 ft | 0 kts | 119° |
| 2026-05-07 16:13 | -6.11436 | 106.65850 | 36 ft | 0 kts | 123° |
| 2026-05-07 16:13 | -6.11465 | 106.65873 | 37 ft | 12 kts | 147° |
| 2026-05-07 16:14 | -6.11534 | 106.65909 | 37 ft | 11 kts | 154° |
| 2026-05-07 16:14 | -6.11601 | 106.65942 | 37 ft | 11 kts | 154° |
| 2026-05-07 16:14 | -6.11668 | 106.65970 | 37 ft | 10 kts | 158° |
| 2026-05-07 16:14 | -6.11737 | 106.65998 | 37 ft | 10 kts | 158° |
| 2026-05-07 16:15 | -6.11782 | 106.66021 | 37 ft | 7 kts | 141° |
| 2026-05-07 16:15 | -6.11796 | 106.66075 | 37 ft | 9 kts | 76° |
| 2026-05-07 16:15 | -6.11772 | 106.66139 | 37 ft | 10 kts | 68° |
| 2026-05-07 16:15 | -6.11748 | 106.66201 | 37 ft | 9 kts | 69° |
| 2026-05-07 16:16 | -6.11725 | 106.66260 | 37 ft | 8 kts | 68° |
| 2026-05-07 16:16 | -6.11721 | 106.66276 | 37 ft | 0 kts | 103° |
| 2026-05-07 16:16 | -6.11725 | 106.66279 | 37 ft | 1 kts | 131° |
| 2026-05-07 16:16 | -6.11727 | 106.66284 | 37 ft | 1 kts | 122° |
| 2026-05-07 16:17 | -6.11730 | 106.66290 | 35 ft | 2 kts | 117° |
| 2026-05-07 16:17 | -6.11749 | 106.66306 | 37 ft | 3 kts | 148° |
| 2026-05-07 16:17 | -6.11750 | 106.66307 | 37 ft | 0 kts | 140° |
| 2026-05-07 16:17 | -6.11758 | 106.66314 | 37 ft | 3 kts | 147° |
| 2026-05-07 16:18 | -6.11771 | 106.66319 | 37 ft | 2 kts | 160° |
| 2026-05-07 16:18 | -6.11781 | 106.66322 | 37 ft | 1 kts | 164° |
| 2026-05-07 16:18 | -6.11786 | 106.66324 | 37 ft | 1 kts | 165° |
| 2026-05-07 16:18 | -6.11790 | 106.66325 | 37 ft | 0 kts | 165° |
| 2026-05-07 16:19 | -6.11793 | 106.66326 | 37 ft | 0 kts | 165° |
| 2026-05-07 16:19 | -6.11795 | 106.66326 | 37 ft | 0 kts | 165° |